Piedmont, South Dakota
Current Conditions -  °F | °C
As of 10:58 AM on Thursday 23 Oct 2014 (Local Time) from KRCA Reporting Station
Clear Clear  
Wind Chill: 60°   Ceiling: Unl
Heat Index: 60°   Visibility: 8mi
Dew Point: 27°   Wind: 6mph
Humidity: 29%   Direction: 170°S
Pressure: 29.96"   Gusts: NA
Location:  44.23°N, 103.39°W
Report Text: KRCA 231658Z AUTO 17005KT 8SM CLR 16/M03 A2996 RMK AO2 SLP146 T01551026 $
Loading
Personal Weather Stations






























Interactive Weather Map
Tropical Storm Tracking
New forecast layout! Learn more

10-Day Weather Forecast

Advertisements
Track Severe Weather on mobile